Time;durP1;ratioP1;P1;durP2;ratioP2;P2;SDS_P1;SDS_P2;PMS_P1;PMS_P2;Temp;Humidity;BMP_temperature;BMP_pressure;BME280_temperature;BME280_humidity;BME280_pressure;Samples;Min_cycle;Max_cycle;Signal;HPM_P1;HPM_P2
2023/05/13 00:00:50;;;;;;;8.43;6.32;;;13.80;99.90;;;;;;2073225;28;20038;-71
2023/05/13 00:01:50;;;;;;;9.00;6.10;;;13.80;99.90;;;;;;2073518;28;20034;-71
2023/05/13 00:02:51;;;;;;;6.75;6.07;;;13.80;99.90;;;;;;2073624;28;20041;-71
2023/05/13 00:03:51;;;;;;;9.40;6.18;;;13.80;99.90;;;;;;2076746;28;20854;-71
2023/05/13 00:04:52;;;;;;;7.55;6.20;;;13.80;99.90;;;;;;2074253;28;20096;-71
2023/05/13 00:05:53;;;;;;;6.50;5.90;;;13.70;99.90;;;;;;2074719;28;20037;-71
2023/05/13 00:06:53;;;;;;;6.38;5.78;;;13.70;99.90;;;;;;2074597;28;20022;-71
2023/05/13 00:07:54;;;;;;;8.48;5.65;;;13.70;99.90;;;;;;2074541;28;20056;-71
2023/05/13 00:08:55;;;;;;;6.90;6.13;;;13.70;99.90;;;;;;2075735;28;20108;-71
2023/05/13 00:09:55;;;;;;;6.97;5.47;;;13.70;99.90;;;;;;2075547;28;20485;-71
2023/05/13 00:10:56;;;;;;;6.97;5.20;;;13.70;99.90;;;;;;2074494;28;20038;-71
2023/05/13 00:11:56;;;;;;;7.88;6.00;;;13.70;99.90;;;;;;2076973;28;20021;-71
2023/05/13 00:12:57;;;;;;;6.10;5.60;;;13.70;99.90;;;;;;2072364;28;20014;-71
2023/05/13 00:13:57;;;;;;;5.90;5.40;;;13.70;99.90;;;;;;2072054;28;20034;-71
2023/05/13 00:14:58;;;;;;;7.38;5.45;;;13.60;99.90;;;;;;2073233;28;20060;-71
2023/05/13 00:15:58;;;;;;;7.03;5.78;;;13.60;99.90;;;;;;2074643;28;20025;-71
2023/05/13 00:17:01;;;;;;;6.18;5.57;;;13.70;99.90;;;;;;2073822;28;20038;-71
2023/05/13 00:18:01;;;;;;;6.38;5.85;;;13.60;99.90;;;;;;2073025;28;21002;-71
2023/05/13 00:19:02;;;;;;;5.80;5.28;;;13.60;99.90;;;;;;2075560;28;20429;-71
2023/05/13 00:20:03;;;;;;;6.72;5.97;;;13.60;99.90;;;;;;2073940;28;20120;-71
2023/05/13 00:21:03;;;;;;;8.40;5.35;;;13.60;99.90;;;;;;2076388;28;20029;-71
2023/05/13 00:22:04;;;;;;;7.10;5.93;;;13.60;99.90;;;;;;2073483;28;20033;-71
2023/05/13 00:23:06;;;;;;;8.77;5.53;;;13.60;99.90;;;;;;2074893;28;20033;-71
2023/05/13 00:24:07;;;;;;;6.03;5.43;;;13.50;99.90;;;;;;2074314;28;20148;-71
2023/05/13 00:25:08;;;;;;;7.78;5.85;;;13.50;99.90;;;;;;2074171;28;20485;-71
2023/05/13 00:26:08;;;;;;;9.10;6.32;;;13.50;99.90;;;;;;2073511;28;20033;-71
2023/05/13 00:27:10;;;;;;;7.47;6.07;;;13.50;99.90;;;;;;2073047;28;20164;-71
2023/05/13 00:28:13;;;;;;;10.13;6.97;;;13.50;99.90;;;;;;2073281;28;20025;-71
2023/05/13 00:29:14;;;;;;;6.88;5.75;;;13.50;99.90;;;;;;2075857;28;20457;-71
2023/05/13 00:30:14;;;;;;;6.75;6.10;;;13.50;99.90;;;;;;2071727;28;20445;-71
2023/05/13 00:31:15;;;;;;;7.03;6.25;;;13.50;99.90;;;;;;2074644;28;20412;-71
2023/05/13 00:32:16;;;;;;;6.80;6.13;;;13.50;99.90;;;;;;2075460;28;20022;-71
2023/05/13 00:33:16;;;;;;;7.03;5.82;;;13.50;99.90;;;;;;2074144;28;20026;-71
2023/05/13 00:34:18;;;;;;;6.65;5.85;;;13.40;99.90;;;;;;2074596;28;20516;-71
2023/05/13 00:35:19;;;;;;;6.57;5.38;;;13.40;99.90;;;;;;2076095;28;20104;-71
2023/05/13 00:36:19;;;;;;;9.57;6.60;;;13.40;99.90;;;;;;2072768;28;20028;-71
2023/05/13 00:37:20;;;;;;;5.95;5.45;;;13.40;99.90;;;;;;2075233;28;20032;-71
2023/05/13 00:38:20;;;;;;;6.35;5.75;;;13.40;99.90;;;;;;2075734;28;20489;-71
2023/05/13 00:39:21;;;;;;;6.20;5.63;;;13.40;99.90;;;;;;2075301;28;20021;-71
2023/05/13 00:40:23;;;;;;;7.60;6.13;;;13.40;99.90;;;;;;2074913;28;20056;-71
2023/05/13 00:41:24;;;;;;;6.95;6.32;;;13.40;99.90;;;;;;2074874;28;20469;-71
2023/05/13 00:42:25;;;;;;;6.15;5.60;;;13.40;99.90;;;;;;2074456;28;20029;-71
2023/05/13 00:43:25;;;;;;;6.53;5.85;;;13.40;99.90;;;;;;2074232;28;20028;-71
2023/05/13 00:44:27;;;;;;;6.10;5.60;;;13.30;99.90;;;;;;2072686;28;20037;-71
2023/05/13 00:45:28;;;;;;;9.25;6.40;;;13.30;99.90;;;;;;2073476;28;20049;-71
2023/05/13 00:46:32;;;;;;;7.65;5.88;;;13.30;99.90;;;;;;2073136;28;20040;-71
2023/05/13 00:47:32;;;;;;;6.78;6.28;;;13.30;99.90;;;;;;2076101;28;20096;-71
2023/05/13 00:48:33;;;;;;;7.57;6.65;;;13.30;99.90;;;;;;2074081;28;20017;-71
2023/05/13 00:49:33;;;;;;;5.93;5.43;;;13.30;99.90;;;;;;2075673;28;20018;-70
2023/05/13 00:50:34;;;;;;;7.18;6.00;;;13.30;99.90;;;;;;2073693;28;20025;-70
2023/05/13 00:51:35;;;;;;;6.72;6.10;;;13.20;99.90;;;;;;2074786;28;20020;-70
2023/05/13 00:52:40;;;;;;;7.25;6.30;;;13.20;99.90;;;;;;2074596;28;20029;-70
2023/05/13 00:53:42;;;;;;;7.72;5.75;;;13.20;99.90;;;;;;2072448;28;20473;-70
2023/05/13 00:54:42;;;;;;;6.32;5.72;;;13.20;99.90;;;;;;2075576;28;20036;-71
2023/05/13 00:55:44;;;;;;;7.97;5.80;;;13.20;99.90;;;;;;2073012;28;20498;-71
2023/05/13 00:56:45;;;;;;;6.80;6.03;;;13.20;99.90;;;;;;2074240;28;20112;-70
2023/05/13 00:57:45;;;;;;;6.25;5.63;;;13.20;99.90;;;;;;2074902;28;20034;-71
2023/05/13 00:58:46;;;;;;;6.45;5.88;;;13.20;99.90;;;;;;2075473;28;20029;-70
2023/05/13 00:59:47;;;;;;;7.15;5.82;;;13.20;99.90;;;;;;2073846;28;20029;-70
2023/05/13 01:01:12;;;;;;;6.45;5.85;;;13.10;99.90;;;;;;2075668;28;20034;-70
2023/05/13 01:02:25;;;;;;;6.88;5.82;;;13.10;99.90;;;;;;2076076;28;20109;-70
2023/05/13 01:04:07;;;;;;;7.20;6.53;;;13.10;99.90;;;;;;2074497;28;20088;-70
2023/05/13 01:05:32;;;;;;;6.30;5.72;;;13.10;99.90;;;;;;2072337;28;20029;-70
2023/05/13 01:06:41;;;;;;;6.72;6.13;;;13.00;99.90;;;;;;2072727;28;20030;-70
2023/05/13 01:08:03;;;;;;;6.30;5.80;;;13.00;99.90;;;;;;2073253;28;20034;-70
2023/05/13 01:09:37;;;;;;;7.53;6.40;;;13.00;99.90;;;;;;2074760;28;20029;-70
2023/05/13 01:10:46;;;;;;;6.65;5.65;;;13.00;99.90;;;;;;2073284;28;20022;-70
2023/05/13 01:11:49;;;;;;;7.20;6.22;;;12.90;99.90;;;;;;2075389;28;20032;-70
2023/05/13 01:12:55;;;;;;;10.02;6.53;;;12.90;99.90;;;;;;2072018;28;20020;-70
2023/05/13 01:14:02;;;;;;;8.25;7.10;;;12.90;99.90;;;;;;2073859;28;20029;-70
2023/05/13 01:15:04;;;;;;;8.85;5.72;;;12.90;99.90;;;;;;2075438;28;20029;-70
2023/05/13 01:16:26;;;;;;;6.75;6.25;;;12.90;99.90;;;;;;2075496;28;20034;-70
2023/05/13 01:17:54;;;;;;;7.40;6.60;;;12.90;99.90;;;;;;2073989;28;20021;-70
2023/05/13 01:19:00;;;;;;;6.95;5.95;;;12.90;99.90;;;;;;2089818;28;20106;-70
2023/05/13 01:20:03;;;;;;;6.88;6.28;;;12.90;99.90;;;;;;2088877;28;20056;-70
2023/05/13 01:21:05;;;;;;;7.20;5.85;;;12.80;99.90;;;;;;2073484;28;20026;-70
2023/05/13 01:22:06;;;;;;;7.03;6.20;;;12.80;99.90;;;;;;2073302;28;20022;-70
2023/05/13 01:23:06;;;;;;;8.45;6.25;;;12.80;99.90;;;;;;2073364;28;20048;-70
2023/05/13 01:24:07;;;;;;;7.47;6.40;;;12.80;99.90;;;;;;2074565;28;20032;-70
2023/05/13 01:25:08;;;;;;;6.50;5.68;;;12.80;99.90;;;;;;2073835;28;20037;-70
2023/05/13 01:26:08;;;;;;;7.20;6.47;;;12.80;99.90;;;;;;2075579;28;20029;-70
2023/05/13 01:27:09;;;;;;;6.25;5.75;;;12.80;99.90;;;;;;2074572;28;20076;-70
2023/05/13 01:28:10;;;;;;;6.50;5.90;;;12.80;99.90;;;;;;2076995;28;20029;-70
2023/05/13 01:29:10;;;;;;;7.28;6.50;;;12.80;99.90;;;;;;2074165;28;20072;-70
2023/05/13 01:30:11;;;;;;;8.68;6.82;;;12.80;99.90;;;;;;2090856;28;20020;-70
2023/05/13 01:31:13;;;;;;;7.60;6.80;;;12.80;99.90;;;;;;2091390;28;20060;-70
2023/05/13 01:32:14;;;;;;;7.63;6.05;;;12.70;99.90;;;;;;2074530;28;20037;-70
2023/05/13 01:33:17;;;;;;;6.60;5.75;;;12.70;99.90;;;;;;2073167;28;20061;-71
2023/05/13 01:34:19;;;;;;;6.57;5.70;;;12.70;99.90;;;;;;2075897;28;20018;-71
2023/05/13 01:35:22;;;;;;;6.55;5.95;;;12.70;99.90;;;;;;2075647;28;20440;-71
2023/05/13 01:36:22;;;;;;;8.23;6.38;;;12.70;99.90;;;;;;2074421;28;20029;-71
2023/05/13 01:37:23;;;;;;;6.57;5.60;;;12.70;99.90;;;;;;2076417;28;20029;-71
2023/05/13 01:38:25;;;;;;;7.05;6.45;;;12.70;99.90;;;;;;2073606;28;20025;-71
2023/05/13 01:39:27;;;;;;;7.22;6.63;;;12.70;99.90;;;;;;2074929;28;20097;-71
2023/05/13 01:40:28;;;;;;;7.32;6.63;;;12.70;99.90;;;;;;2074258;28;20021;-71
2023/05/13 01:41:29;;;;;;;6.18;5.68;;;12.60;99.90;;;;;;2075949;28;20421;-71
2023/05/13 01:42:29;;;;;;;6.90;6.30;;;12.70;99.90;;;;;;2075638;28;20447;-71
2023/05/13 01:43:30;;;;;;;6.97;6.38;;;12.60;99.90;;;;;;2075405;28;20168;-71
2023/05/13 01:44:30;;;;;;;6.80;6.20;;;12.60;99.90;;;;;;2076099;28;20034;-71
2023/05/13 01:45:32;;;;;;;7.40;6.70;;;12.60;99.90;;;;;;2075689;28;20030;-71
2023/05/13 01:46:32;;;;;;;7.60;6.70;;;12.60;99.90;;;;;;2072043;28;20151;-71
2023/05/13 01:47:33;;;;;;;7.05;6.45;;;12.60;99.90;;;;;;2075989;28;20049;-71
2023/05/13 01:48:34;;;;;;;7.18;6.57;;;12.50;99.90;;;;;;2076513;28;20101;-71
2023/05/13 01:49:34;;;;;;;6.45;5.95;;;12.60;99.90;;;;;;2076287;28;20018;-71
2023/05/13 01:50:35;;;;;;;7.95;7.25;;;12.50;99.90;;;;;;2076131;28;20026;-71
2023/05/13 01:51:36;;;;;;;7.47;6.78;;;12.50;99.90;;;;;;2074413;28;20022;-71
2023/05/13 01:52:37;;;;;;;7.10;6.40;;;12.50;99.90;;;;;;2076370;28;20026;-71
2023/05/13 01:53:37;;;;;;;8.60;7.20;;;12.50;99.90;;;;;;2076186;28;20039;-71
2023/05/13 01:54:38;;;;;;;8.15;7.35;;;12.50;99.90;;;;;;2074441;28;20525;-71
2023/05/13 01:55:38;;;;;;;8.15;7.35;;;12.50;99.90;;;;;;2076700;28;20048;-71
2023/05/13 01:56:39;;;;;;;7.32;6.70;;;12.50;99.90;;;;;;2075099;28;20065;-71
2023/05/13 01:57:39;;;;;;;10.05;7.25;;;12.50;99.90;;;;;;2076400;28;20033;-71
2023/05/13 01:58:40;;;;;;;6.53;6.00;;;12.50;99.90;;;;;;2075361;28;20025;-71
2023/05/13 01:59:41;;;;;;;9.93;7.40;;;12.40;99.90;;;;;;2076220;28;20091;-71
2023/05/13 02:00:41;;;;;;;8.15;7.45;;;12.40;99.90;;;;;;2073799;28;20033;-71
2023/05/13 02:01:43;;;;;;;7.32;6.72;;;12.40;99.90;;;;;;2076187;28;20389;-71
2023/05/13 02:02:45;;;;;;;9.27;6.85;;;12.40;99.90;;;;;;2075940;28;20037;-71
2023/05/13 02:03:46;;;;;;;7.80;6.75;;;12.40;99.90;;;;;;2076596;28;20075;-71
2023/05/13 02:04:46;;;;;;;6.55;6.05;;;12.40;99.90;;;;;;2074813;28;20072;-71
2023/05/13 02:05:47;;;;;;;7.30;6.60;;;12.40;99.90;;;;;;2075331;28;20460;-71
2023/05/13 02:06:48;;;;;;;8.80;8.02;;;12.40;99.90;;;;;;2074235;28;20033;-71
2023/05/13 02:07:48;;;;;;;7.78;7.13;;;12.40;99.90;;;;;;2074857;28;20029;-71
2023/05/13 02:08:49;;;;;;;11.27;7.35;;;12.40;99.90;;;;;;2074993;28;20021;-71
2023/05/13 02:09:50;;;;;;;7.78;7.07;;;12.40;99.90;;;;;;2074504;28;20022;-71
2023/05/13 02:10:54;;;;;;;8.00;7.30;;;12.40;99.90;;;;;;2076693;28;20026;-71
2023/05/13 02:11:55;;;;;;;9.43;8.52;;;12.40;99.90;;;;;;2075170;28;20017;-71
2023/05/13 02:12:56;;;;;;;10.30;9.40;;;12.30;99.90;;;;;;2076038;28;20033;-71
2023/05/13 02:13:56;;;;;;;9.43;8.48;;;12.40;99.90;;;;;;2077542;28;20029;-71
2023/05/13 02:14:57;;;;;;;9.55;8.63;;;12.40;99.90;;;;;;2075195;28;20777;-71
2023/05/13 02:15:57;;;;;;;12.23;9.32;;;12.40;99.90;;;;;;2075023;28;20036;-71
2023/05/13 02:16:58;;;;;;;8.85;7.18;;;12.40;99.90;;;;;;2076054;28;21067;-71
2023/05/13 02:17:58;;;;;;;8.93;8.13;;;12.30;99.90;;;;;;2077562;28;20048;-71
2023/05/13 02:18:59;;;;;;;7.88;7.18;;;12.30;99.90;;;;;;2091199;28;20075;-71
2023/05/13 02:19:59;;;;;;;8.13;7.43;;;12.30;99.90;;;;;;2090508;28;20036;-71
2023/05/13 02:21:00;;;;;;;7.20;6.50;;;12.30;99.90;;;;;;2075268;28;20425;-71
2023/05/13 02:22:01;;;;;;;9.48;8.32;;;12.30;99.90;;;;;;2075191;28;20539;-71
2023/05/13 02:23:01;;;;;;;8.80;7.80;;;12.30;99.90;;;;;;2075190;28;20030;-71
2023/05/13 02:24:02;;;;;;;7.88;7.22;;;12.30;99.90;;;;;;2076210;28;20026;-71
2023/05/13 02:25:03;;;;;;;8.05;7.28;;;12.30;99.90;;;;;;2077930;28;20099;-71
2023/05/13 02:26:03;;;;;;;8.15;7.35;;;12.30;99.90;;;;;;2074830;28;20492;-71
2023/05/13 02:27:06;;;;;;;8.52;7.25;;;12.30;99.90;;;;;;2076813;28;20401;-71
2023/05/13 02:28:07;;;;;;;8.20;7.40;;;12.30;99.90;;;;;;2076972;28;20136;-71
2023/05/13 02:29:07;;;;;;;10.23;8.32;;;12.30;99.90;;;;;;2075641;28;20069;-71
2023/05/13 02:30:08;;;;;;;9.43;7.22;;;12.30;99.90;;;;;;2074650;28;20033;-71
2023/05/13 02:31:09;;;;;;;7.57;6.97;;;12.30;99.90;;;;;;2074119;28;20022;-71
2023/05/13 02:32:09;;;;;;;9.85;7.80;;;12.30;99.90;;;;;;2076479;28;20116;-71
2023/05/13 02:33:10;;;;;;;9.60;8.40;;;12.30;99.90;;;;;;2076142;28;20102;-71
2023/05/13 02:34:11;;;;;;;8.95;8.15;;;12.30;99.90;;;;;;2078416;28;20030;-71
2023/05/13 02:35:12;;;;;;;8.60;7.65;;;12.30;99.90;;;;;;2074560;28;20378;-71
2023/05/13 02:36:12;;;;;;;8.15;7.35;;;12.20;99.90;;;;;;2074025;28;20026;-71
2023/05/13 02:37:13;;;;;;;9.07;8.05;;;12.30;99.90;;;;;;2073772;28;20073;-71
2023/05/13 02:38:13;;;;;;;8.73;7.20;;;12.30;99.90;;;;;;2076270;28;20416;-71
2023/05/13 02:39:14;;;;;;;9.55;8.50;;;12.20;99.90;;;;;;2074564;28;20083;-71
2023/05/13 02:40:15;;;;;;;8.30;7.50;;;12.30;99.90;;;;;;2076867;28;20022;-71
2023/05/13 02:41:15;;;;;;;8.32;7.43;;;12.20;99.90;;;;;;2077521;28;20029;-71
2023/05/13 02:42:16;;;;;;;8.43;7.57;;;12.20;99.90;;;;;;2075259;28;20021;-71
2023/05/13 02:43:16;;;;;;;9.18;8.27;;;12.20;99.90;;;;;;2076505;28;20083;-71
2023/05/13 02:44:17;;;;;;;10.20;8.07;;;12.20;99.90;;;;;;2074702;28;20026;-71
2023/05/13 02:45:17;;;;;;;7.55;6.85;;;12.20;99.90;;;;;;2075009;28;20075;-71
2023/05/13 02:46:18;;;;;;;7.80;7.10;;;12.20;99.90;;;;;;2075195;28;20029;-71
2023/05/13 02:47:18;;;;;;;9.23;8.32;;;12.20;99.90;;;;;;2075414;28;20461;-71
2023/05/13 02:48:19;;;;;;;7.85;7.15;;;12.20;99.90;;;;;;2075676;28;20600;-71
2023/05/13 02:49:19;;;;;;;8.02;7.22;;;12.20;99.90;;;;;;2073534;28;20108;-71
2023/05/13 02:50:20;;;;;;;7.65;6.53;;;12.20;99.90;;;;;;2075756;28;20076;-71
2023/05/13 02:51:21;;;;;;;8.25;7.55;;;12.20;99.90;;;;;;2075403;28;20037;-71
2023/05/13 02:52:22;;;;;;;10.40;7.20;;;12.20;99.90;;;;;;2072551;28;20083;-71
2023/05/13 02:53:22;;;;;;;7.25;6.65;;;12.20;99.90;;;;;;2074670;28;20058;-71
2023/05/13 02:54:23;;;;;;;7.75;7.05;;;12.10;99.90;;;;;;2072954;28;20018;-71
2023/05/13 02:55:24;;;;;;;8.35;7.55;;;12.20;99.90;;;;;;2075921;28;20036;-71
2023/05/13 02:56:25;;;;;;;8.80;7.25;;;12.10;99.90;;;;;;2075433;28;20757;-71
2023/05/13 02:57:25;;;;;;;8.50;7.80;;;12.10;99.90;;;;;;2074897;28;20075;-71
2023/05/13 02:58:26;;;;;;;8.02;7.28;;;12.10;99.90;;;;;;2076818;28;20069;-71
2023/05/13 02:59:26;;;;;;;9.13;8.18;;;12.10;99.90;;;;;;2074210;28;20022;-71
2023/05/13 03:00:27;;;;;;;7.75;6.85;;;12.10;99.90;;;;;;2074052;28;20413;-71
2023/05/13 03:01:27;;;;;;;8.10;7.40;;;12.10;99.90;;;;;;2074945;28;20799;-71
2023/05/13 03:02:28;;;;;;;7.13;6.43;;;12.10;99.90;;;;;;2075903;28;20107;-71
2023/05/13 03:03:28;;;;;;;7.68;6.97;;;12.10;99.90;;;;;;2073325;28;20427;-71
2023/05/13 03:04:29;;;;;;;8.13;7.35;;;12.10;99.90;;;;;;2075283;28;20089;-71
2023/05/13 03:05:29;;;;;;;8.68;7.85;;;12.10;99.90;;;;;;2074918;28;20041;-71
2023/05/13 03:06:30;;;;;;;8.30;7.60;;;12.00;99.90;;;;;;2076289;28;20061;-71
2023/05/13 03:07:31;;;;;;;8.70;7.90;;;12.00;99.90;;;;;;2074715;28;20026;-71
2023/05/13 03:08:32;;;;;;;8.55;7.60;;;12.00;99.90;;;;;;2077848;28;20497;-71
2023/05/13 03:09:33;;;;;;;8.10;7.40;;;12.00;99.90;;;;;;2076064;28;20049;-71
2023/05/13 03:10:34;;;;;;;8.77;8.00;;;12.00;99.90;;;;;;2077127;28;20136;-71
2023/05/13 03:11:35;;;;;;;7.68;6.90;;;12.00;99.90;;;;;;2078124;28;20540;-71
2023/05/13 03:12:35;;;;;;;8.25;7.53;;;12.00;99.90;;;;;;2073269;28;20037;-71
2023/05/13 03:13:36;;;;;;;9.05;8.25;;;12.00;99.90;;;;;;2091739;28;20021;-71
2023/05/13 03:14:37;;;;;;;8.38;7.35;;;12.00;99.90;;;;;;2090188;28;20115;-71
2023/05/13 03:15:37;;;;;;;7.93;6.53;;;12.00;99.90;;;;;;2073714;28;20101;-71
2023/05/13 03:16:38;;;;;;;8.57;7.50;;;11.90;99.90;;;;;;2074904;28;20390;-71
2023/05/13 03:17:38;;;;;;;7.95;7.25;;;11.90;99.90;;;;;;2073935;28;20022;-71
2023/05/13 03:18:39;;;;;;;9.02;7.78;;;11.90;99.90;;;;;;2073634;28;20040;-71
2023/05/13 03:19:39;;;;;;;9.98;9.05;;;11.90;99.90;;;;;;2082466;28;20024;-71
2023/05/13 03:20:40;;;;;;;8.20;7.47;;;11.90;99.90;;;;;;2081147;28;20029;-71
2023/05/13 03:21:41;;;;;;;9.43;8.48;;;11.90;99.90;;;;;;2091232;28;20059;-71
2023/05/13 03:22:41;;;;;;;9.02;8.13;;;11.90;99.90;;;;;;2090348;28;20032;-71
2023/05/13 03:23:43;;;;;;;8.18;7.35;;;11.90;99.90;;;;;;2075110;28;20028;-71
2023/05/13 03:24:44;;;;;;;8.65;7.78;;;11.90;99.90;;;;;;2075791;28;20041;-71
2023/05/13 03:25:44;;;;;;;8.52;7.43;;;11.80;99.90;;;;;;2075433;28;20496;-71
2023/05/13 03:26:45;;;;;;;8.63;7.10;;;11.80;99.90;;;;;;2073353;28;20113;-71
2023/05/13 03:27:45;;;;;;;8.85;8.02;;;11.80;99.90;;;;;;2076339;28;20026;-71
2023/05/13 03:28:46;;;;;;;8.55;7.65;;;11.80;99.90;;;;;;2075962;28;20086;-71
2023/05/13 03:29:46;;;;;;;8.65;7.93;;;11.80;99.90;;;;;;2074630;28;20720;-71
2023/05/13 03:30:47;;;;;;;8.68;7.85;;;11.80;99.90;;;;;;2074715;28;20030;-71
2023/05/13 03:31:48;;;;;;;8.07;7.40;;;11.80;99.90;;;;;;2074477;28;20122;-71
2023/05/13 03:32:49;;;;;;;8.73;8.02;;;11.80;99.90;;;;;;2075250;28;20026;-71
2023/05/13 03:33:49;;;;;;;6.93;6.32;;;11.80;99.90;;;;;;2075354;28;20038;-71
2023/05/13 03:34:50;;;;;;;7.60;6.72;;;11.80;99.90;;;;;;2074566;28;20727;-71
2023/05/13 03:35:51;;;;;;;8.90;7.68;;;11.70;99.90;;;;;;2076072;28;20033;-71
2023/05/13 03:36:51;;;;;;;8.55;7.78;;;11.70;99.90;;;;;;2074962;28;20033;-71
2023/05/13 03:37:52;;;;;;;8.82;7.05;;;11.70;99.90;;;;;;2075871;28;20034;-71
2023/05/13 03:38:52;;;;;;;8.98;8.18;;;11.70;99.90;;;;;;2075074;28;20369;-71
2023/05/13 03:39:53;;;;;;;9.77;7.40;;;11.70;99.90;;;;;;2075108;28;20408;-71
2023/05/13 03:40:53;;;;;;;8.77;7.22;;;11.70;99.90;;;;;;2077080;28;20044;-71
2023/05/13 03:41:54;;;;;;;8.15;7.35;;;11.70;99.90;;;;;;2073846;28;20037;-71
2023/05/13 03:42:54;;;;;;;10.05;7.35;;;11.70;99.90;;;;;;2075852;28;20059;-71
2023/05/13 03:43:55;;;;;;;7.88;7.18;;;11.70;99.90;;;;;;2090795;28;20032;-71
2023/05/13 03:44:56;;;;;;;7.90;7.10;;;11.60;99.90;;;;;;2090797;28;20334;-71
2023/05/13 03:45:56;;;;;;;7.65;7.03;;;11.60;99.90;;;;;;2074170;28;20029;-71
2023/05/13 03:46:57;;;;;;;11.02;8.18;;;11.60;99.90;;;;;;2076052;28;20030;-71
2023/05/13 03:47:57;;;;;;;8.65;7.95;;;11.60;99.90;;;;;;2080352;28;20022;-71
2023/05/13 03:48:58;;;;;;;7.93;7.22;;;11.60;99.90;;;;;;2079326;28;20029;-71
2023/05/13 03:49:58;;;;;;;9.00;7.93;;;11.60;99.90;;;;;;2073841;28;20401;-71
2023/05/13 03:50:59;;;;;;;8.52;7.63;;;11.60;99.90;;;;;;2074721;28;20050;-71
2023/05/13 03:52:00;;;;;;;7.63;6.95;;;11.60;99.90;;;;;;2075551;28;20022;-71
2023/05/13 03:53:01;;;;;;;8.88;8.07;;;11.60;99.90;;;;;;2072789;28;20030;-71
2023/05/13 03:54:01;;;;;;;8.93;8.05;;;11.60;99.90;;;;;;2075376;28;20030;-71
2023/05/13 03:55:02;;;;;;;10.52;8.77;;;11.60;99.90;;;;;;2073352;28;20026;-71
2023/05/13 03:56:02;;;;;;;9.23;8.40;;;11.50;99.90;;;;;;2073528;28;20030;-71
2023/05/13 03:57:03;;;;;;;10.15;8.55;;;11.60;99.90;;;;;;2075274;28;20026;-71
2023/05/13 03:58:12;;;;;;;8.38;7.68;;;11.50;99.90;;;;;;2074895;28;20045;-71
2023/05/13 03:59:12;;;;;;;9.45;8.50;;;11.50;99.90;;;;;;2067908;28;20037;-71
2023/05/13 04:00:13;;;;;;;9.25;8.00;;;11.50;99.90;;;;;;2074411;28;20130;-71
2023/05/13 04:01:14;;;;;;;8.00;7.15;;;11.50;99.90;;;;;;2072950;28;20095;-71
2023/05/13 04:02:15;;;;;;;9.60;8.77;;;11.50;99.90;;;;;;2077558;28;20552;-71
2023/05/13 04:03:16;;;;;;;9.15;8.35;;;11.50;99.90;;;;;;2073540;28;20053;-71
2023/05/13 04:04:16;;;;;;;8.98;7.88;;;11.50;99.90;;;;;;2074809;28;20137;-71
2023/05/13 04:05:17;;;;;;;7.03;6.32;;;11.50;99.90;;;;;;2073466;28;20094;-71
2023/05/13 04:06:17;;;;;;;8.25;7.45;;;11.50;99.90;;;;;;2074127;28;20025;-71
2023/05/13 04:07:18;;;;;;;6.80;6.20;;;11.50;99.90;;;;;;2074865;28;20593;-71
2023/05/13 04:08:18;;;;;;;9.27;7.75;;;11.40;99.90;;;;;;2074617;28;20022;-71
2023/05/13 04:09:19;;;;;;;8.32;7.53;;;11.50;99.90;;;;;;2075727;28;20040;-71
2023/05/13 04:10:20;;;;;;;7.90;7.22;;;11.50;99.90;;;;;;2078136;28;20029;-71
2023/05/13 04:11:20;;;;;;;7.65;6.95;;;11.50;99.90;;;;;;2074503;28;20041;-71
2023/05/13 04:12:21;;;;;;;9.63;7.85;;;11.40;99.90;;;;;;2075214;28;20897;-71
2023/05/13 04:13:21;;;;;;;8.48;7.72;;;11.40;99.90;;;;;;2074724;28;20030;-71
2023/05/13 04:14:22;;;;;;;10.77;9.52;;;11.40;99.90;;;;;;2072687;28;20185;-71
2023/05/13 04:15:22;;;;;;;8.77;7.97;;;11.50;99.90;;;;;;2073957;28;20025;-71
2023/05/13 04:16:24;;;;;;;8.35;7.55;;;11.50;99.90;;;;;;2090364;28;20024;-71
2023/05/13 04:17:24;;;;;;;9.07;8.27;;;11.40;99.90;;;;;;2088696;28;20021;-71
2023/05/13 04:18:25;;;;;;;10.45;8.73;;;11.40;99.90;;;;;;2076336;28;20091;-71
2023/05/13 04:19:25;;;;;;;9.02;7.72;;;11.40;99.90;;;;;;2073948;28;20022;-71
2023/05/13 04:20:26;;;;;;;8.75;7.72;;;11.40;99.90;;;;;;2072548;28;20036;-71
2023/05/13 04:21:26;;;;;;;9.27;8.35;;;11.40;99.90;;;;;;2074296;28;20736;-71
2023/05/13 04:22:27;;;;;;;8.93;8.13;;;11.40;99.90;;;;;;2075822;28;20100;-71
2023/05/13 04:23:27;;;;;;;9.38;8.48;;;11.40;99.90;;;;;;2074063;28;20026;-71
2023/05/13 04:24:28;;;;;;;8.65;7.57;;;11.40;99.90;;;;;;2073904;28;20653;-71
2023/05/13 04:25:29;;;;;;;9.13;8.23;;;11.40;99.90;;;;;;2072892;28;20072;-71
2023/05/13 04:26:29;;;;;;;9.05;8.27;;;11.40;99.90;;;;;;2075284;28;20493;-71
2023/05/13 04:27:30;;;;;;;8.43;7.63;;;11.40;99.90;;;;;;2075493;28;20036;-71
2023/05/13 04:28:30;;;;;;;9.35;8.38;;;11.40;99.90;;;;;;2075216;28;20033;-71
2023/05/13 04:29:31;;;;;;;8.88;8.18;;;11.40;99.90;;;;;;2073588;28;20669;-71
2023/05/13 04:30:31;;;;;;;9.18;8.30;;;11.40;99.90;;;;;;2074535;28;20026;-71
2023/05/13 04:31:32;;;;;;;7.78;7.15;;;11.40;99.90;;;;;;2075659;28;20029;-71
2023/05/13 04:32:32;;;;;;;9.98;8.93;;;11.40;99.90;;;;;;2073950;28;20021;-71
2023/05/13 04:33:33;;;;;;;9.43;8.45;;;11.40;99.90;;;;;;2076357;28;20100;-71
2023/05/13 04:34:33;;;;;;;8.98;8.02;;;11.40;99.90;;;;;;2073984;28;20469;-71
2023/05/13 04:35:34;;;;;;;10.38;8.73;;;11.40;99.90;;;;;;2076080;28;20017;-71
2023/05/13 04:36:34;;;;;;;8.98;8.18;;;11.50;99.90;;;;;;2074027;28;20021;-71
2023/05/13 04:37:35;;;;;;;9.73;8.82;;;11.40;99.90;;;;;;2073742;28;20120;-71
2023/05/13 04:38:36;;;;;;;10.35;9.25;;;11.50;99.90;;;;;;2074675;28;20025;-71
2023/05/13 04:39:36;;;;;;;12.45;8.68;;;11.50;99.90;;;;;;2074098;28;20025;-71
2023/05/13 04:40:37;;;;;;;9.80;9.00;;;11.50;99.90;;;;;;2073120;28;20121;-71
2023/05/13 04:41:37;;;;;;;10.95;8.05;;;11.50;99.90;;;;;;2072017;28;20033;-71
2023/05/13 04:42:38;;;;;;;10.43;8.73;;;11.50;99.90;;;;;;2074963;28;20646;-71
2023/05/13 04:43:38;;;;;;;9.30;8.45;;;11.50;99.90;;;;;;2076901;28;20020;-71
2023/05/13 04:44:39;;;;;;;11.40;9.50;;;11.50;99.90;;;;;;2075595;28;20044;-71
2023/05/13 04:45:40;;;;;;;8.98;8.07;;;11.50;99.90;;;;;;2073556;28;20127;-71
2023/05/13 04:46:43;;;;;;;9.98;8.95;;;11.50;99.90;;;;;;2075630;28;20030;-71
2023/05/13 04:47:43;;;;;;;9.85;9.10;;;11.60;99.90;;;;;;2073706;28;20028;-71
2023/05/13 04:48:47;;;;;;;9.70;8.70;;;11.60;99.90;;;;;;2074845;28;20033;-71
2023/05/13 04:49:47;;;;;;;10.52;9.18;;;11.60;99.90;;;;;;2074135;28;20010;-71
2023/05/13 04:50:49;;;;;;;9.65;8.73;;;11.60;99.90;;;;;;2075245;28;20075;-71
2023/05/13 04:51:50;;;;;;;9.68;8.75;;;11.70;99.90;;;;;;2074846;28;20576;-71
2023/05/13 04:52:50;;;;;;;9.77;8.98;;;11.70;99.90;;;;;;2074477;28;20441;-71
2023/05/13 04:53:51;;;;;;;9.70;8.90;;;11.70;99.90;;;;;;2075260;28;20038;-71
2023/05/13 04:54:52;;;;;;;9.75;8.75;;;11.80;99.90;;;;;;2074451;28;20024;-71
2023/05/13 04:55:59;;;;;;;10.77;8.80;;;11.80;99.90;;;;;;2072752;28;20026;-71
2023/05/13 04:57:00;;;;;;;10.45;9.45;;;11.90;99.90;;;;;;2076292;28;20025;-71
2023/05/13 04:58:01;;;;;;;10.48;9.45;;;12.00;99.90;;;;;;2073533;28;20026;-71
2023/05/13 04:59:01;;;;;;;12.52;9.23;;;12.00;99.90;;;;;;2075096;28;20029;-71
2023/05/13 05:00:03;;;;;;;10.30;9.40;;;12.10;99.90;;;;;;2074080;28;20501;-71
2023/05/13 05:01:04;;;;;;;10.68;9.50;;;12.20;99.90;;;;;;2077461;28;20029;-71
2023/05/13 05:02:04;;;;;;;10.35;9.43;;;12.20;99.90;;;;;;2077890;28;20033;-71
2023/05/13 05:03:05;;;;;;;9.77;8.82;;;12.30;99.90;;;;;;2077587;28;20026;-71
2023/05/13 05:04:05;;;;;;;9.40;8.40;;;12.40;99.90;;;;;;2077179;28;20067;-71
2023/05/13 05:05:06;;;;;;;9.48;8.57;;;12.50;99.90;;;;;;2081663;28;20041;-71
2023/05/13 05:06:07;;;;;;;9.60;8.80;;;12.50;99.90;;;;;;2074559;28;20154;-71
2023/05/13 05:07:07;;;;;;;12.63;8.98;;;12.60;99.90;;;;;;2074138;28;20037;-72
2023/05/13 05:08:08;;;;;;;9.45;8.65;;;12.70;99.90;;;;;;2074546;28;20994;-71
2023/05/13 05:09:08;;;;;;;11.23;8.98;;;12.80;99.90;;;;;;2075085;28;20027;-71
2023/05/13 05:10:09;;;;;;;8.93;8.13;;;12.90;99.90;;;;;;2074930;28;20022;-71
2023/05/13 05:11:10;;;;;;;10.20;9.18;;;13.00;99.90;;;;;;2074203;28;20054;-71
2023/05/13 05:12:11;;;;;;;11.20;10.02;;;13.10;99.90;;;;;;2075060;28;20463;-71
2023/05/13 05:13:11;;;;;;;10.85;9.75;;;13.20;99.90;;;;;;2077413;28;20382;-71
2023/05/13 05:14:12;;;;;;;11.73;8.63;;;13.30;99.90;;;;;;2076882;28;20064;-71
2023/05/13 05:15:15;;;;;;;10.80;9.70;;;13.40;99.90;;;;;;2076323;28;20071;-71
2023/05/13 05:16:16;;;;;;;11.35;9.55;;;13.50;99.90;;;;;;2076586;28;20547;-71
2023/05/13 05:17:17;;;;;;;10.63;9.45;;;13.60;99.90;;;;;;2076518;28;20121;-71
2023/05/13 05:18:17;;;;;;;9.80;8.73;;;13.70;99.90;;;;;;2075677;28;20037;-71
2023/05/13 05:19:22;;;;;;;12.15;9.25;;;13.80;99.90;;;;;;2076449;28;20541;-71
2023/05/13 05:20:26;;;;;;;9.65;8.80;;;13.90;99.90;;;;;;2076090;28;20445;-71